Time;durP1;ratioP1;P1;durP2;ratioP2;P2;SDS_P1;SDS_P2;PMS_P1;PMS_P2;Temp;Humidity;BMP_temperature;BMP_pressure;BME280_temperature;BME280_humidity;BME280_pressure;Samples;Min_cycle;Max_cycle;Signal;HPM_P1;HPM_P2
2023/03/09 00:01:42;;;;;;;12.73;10.10;;;0.70;99.90;;;;;;4977600;28;20272;-78
2023/03/09 00:04:13;;;;;;;13.53;11.03;;;0.70;1.00;;;;;;4968258;28;20256;-79
2023/03/09 00:06:39;;;;;;;14.93;12.77;;;0.70;1.00;;;;;;4959269;28;20930;-80
2023/03/09 00:09:05;;;;;;;14.07;11.40;;;0.60;1.00;;;;;;4963807;28;20244;-80
2023/03/09 00:11:31;;;;;;;12.07;10.43;;;0.60;99.90;;;;;;4961309;28;20237;-80
2023/03/09 00:13:56;;;;;;;13.33;10.67;;;0.60;99.90;;;;;;4959537;28;20693;-78
2023/03/09 00:16:26;;;;;;;12.37;10.03;;;0.60;1.00;;;;;;4962094;28;20200;-79
2023/03/09 00:18:53;;;;;;;13.30;11.00;;;0.60;1.00;;;;;;4969123;28;20194;-78
2023/03/09 00:21:40;;;;;;;13.37;10.67;;;0.60;1.00;;;;;;4962332;28;20177;-78
2023/03/09 00:24:08;;;;;;;13.20;10.80;;;0.70;1.00;;;;;;4970090;28;20198;-79
2023/03/09 00:26:38;;;;;;;13.80;10.57;;;0.60;1.00;;;;;;4962203;28;20185;-79
2023/03/09 00:29:04;;;;;;;12.03;10.00;;;0.60;99.90;;;;;;4966454;28;20188;-78
2023/03/09 00:31:30;;;;;;;13.10;9.93;;;0.50;1.00;;;;;;4961780;28;20177;-78
2023/03/09 00:33:56;;;;;;;13.20;10.80;;;0.50;1.00;;;;;;4970002;28;20193;-78
2023/03/09 00:36:22;;;;;;;13.03;10.33;;;0.50;99.90;;;;;;4964761;28;20661;-79
2023/03/09 00:38:52;;;;;;;11.63;8.97;;;0.50;1.00;;;;;;4977388;28;20181;-78
2023/03/09 00:41:19;;;;;;;12.33;10.00;;;0.50;96.20;;;;;;4963086;28;20212;-78
2023/03/09 00:43:45;;;;;;;11.87;9.57;;;0.50;99.90;;;;;;4962482;28;20662;-78
2023/03/09 00:46:11;;;;;;;12.00;8.90;;;0.50;99.90;;;;;;4964386;28;20210;-78
2023/03/09 00:48:37;;;;;;;12.20;9.57;;;0.50;99.90;;;;;;4970490;28;20235;-79
2023/03/09 00:51:03;;;;;;;11.70;8.87;;;0.50;99.90;;;;;;4977528;28;20626;-79
2023/03/09 00:53:29;;;;;;;11.27;8.83;;;0.50;99.90;;;;;;4965621;28;20272;-79
2023/03/09 00:55:55;;;;;;;12.53;9.23;;;0.50;99.90;;;;;;4963809;28;20233;-79
2023/03/09 00:58:20;;;;;;;10.13;8.13;;;0.50;99.90;;;;;;4962101;28;20182;-79
2023/03/09 01:00:46;;;;;;;10.37;7.83;;;0.40;1.00;;;;;;4961874;28;20248;-80
2023/03/09 01:03:11;;;;;;;9.50;7.73;;;0.40;41.90;;;;;;4981397;28;20181;-79
2023/03/09 01:05:37;;;;;;;11.40;8.60;;;0.50;1.00;;;;;;4968631;28;20264;-80
2023/03/09 01:08:03;;;;;;;9.33;7.93;;;0.50;1.00;;;;;;4975137;28;20204;-78
2023/03/09 01:10:29;;;;;;;10.80;8.70;;;0.50;99.90;;;;;;4961369;28;20197;-79
2023/03/09 01:12:55;;;;;;;10.07;7.97;;;0.50;1.00;;;;;;4967550;28;20228;-79
2023/03/09 01:15:20;;;;;;;8.87;7.20;;;0.50;99.90;;;;;;4959062;28;20229;-80
2023/03/09 01:17:47;;;;;;;9.33;7.87;;;0.50;1.00;;;;;;4962239;28;20197;-78
2023/03/09 01:20:13;;;;;;;11.07;8.83;;;0.50;99.90;;;;;;4962291;28;20244;-78
2023/03/09 01:22:39;;;;;;;10.93;8.70;;;0.50;99.90;;;;;;4963377;28;20200;-79
2023/03/09 01:25:06;;;;;;;10.80;8.17;;;0.60;1.00;;;;;;4957707;28;20217;-79
2023/03/09 01:27:31;;;;;;;11.87;9.30;;;0.50;1.00;;;;;;4961377;28;20204;-80
2023/03/09 01:29:57;;;;;;;10.83;9.13;;;0.50;99.90;;;;;;4962521;28;20192;-79
2023/03/09 01:32:25;;;;;;;12.47;9.90;;;0.50;1.00;;;;;;4962027;28;20193;-78
2023/03/09 01:34:51;;;;;;;13.37;10.37;;;0.50;1.00;;;;;;4960969;28;21080;-79
2023/03/09 01:37:17;;;;;;;14.77;11.63;;;0.60;99.90;;;;;;4960720;28;20193;-79
2023/03/09 01:39:42;;;;;;;13.90;11.00;;;0.50;99.90;;;;;;4960958;28;21083;-79
2023/03/09 01:42:08;;;;;;;12.87;10.53;;;0.50;1.00;;;;;;4963214;28;20843;-78
2023/03/09 01:44:34;;;;;;;13.60;10.60;;;0.50;1.00;;;;;;4963246;28;20209;-78
2023/03/09 01:46:59;;;;;;;14.37;11.30;;;0.50;1.00;;;;;;4962054;28;20216;-79
2023/03/09 01:49:45;;;;;;;13.57;10.30;;;0.60;47.00;;;;;;4960092;28;20196;-78
2023/03/09 01:52:21;;;;;;;13.30;10.23;;;0.50;47.90;;;;;;4961027;28;20220;-78
2023/03/09 01:54:53;;;;;;;13.60;10.37;;;0.50;1.00;;;;;;4960703;28;20560;-78
2023/03/09 01:57:39;;;;;;;13.00;10.13;;;0.50;70.80;;;;;;4959647;28;20189;-79
2023/03/09 02:00:08;;;;;;;13.43;10.23;;;0.40;25.70;;;;;;4963443;28;20287;-78
2023/03/09 02:02:38;;;;;;;12.30;9.30;;;0.50;91.10;;;;;;4960784;28;20284;-79
2023/03/09 02:05:08;;;;;;;12.43;9.80;;;0.40;35.30;;;;;;4962036;28;20213;-78
2023/03/09 02:07:36;;;;;;;14.57;10.37;;;0.40;99.90;;;;;;4960448;28;20235;-78
2023/03/09 02:10:10;;;;;;;13.23;10.47;;;0.40;99.90;;;;;;4961662;28;20189;-78
2023/03/09 02:12:36;;;;;;;13.63;10.30;;;0.40;99.90;;;;;;4961835;28;20217;-79
2023/03/09 02:15:03;;;;;;;13.73;9.90;;;0.30;99.90;;;;;;4975639;28;20271;-78
2023/03/09 02:17:29;;;;;;;12.37;9.70;;;0.30;99.90;;;;;;4960625;28;20195;-79
2023/03/09 02:20:08;;;;;;;13.23;10.43;;;0.40;99.90;;;;;;4961393;28;20595;-78
2023/03/09 02:22:36;;;;;;;13.27;10.57;;;0.40;99.90;;;;;;4958204;28;20208;-79
2023/03/09 02:25:23;;;;;;;12.13;9.10;;;0.40;66.90;;;;;;4975769;28;20248;-79
2023/03/09 02:27:51;;;;;;;11.27;8.73;;;0.40;99.90;;;;;;4959918;28;20244;-79
2023/03/09 02:30:17;;;;;;;11.47;9.13;;;0.40;3.20;;;;;;4961344;28;20204;-79
2023/03/09 02:32:42;;;;;;;12.23;9.43;;;0.50;1.00;;;;;;4966796;28;20817;-78
2023/03/09 02:35:09;;;;;;;12.07;9.17;;;0.40;1.00;;;;;;4960773;28;20251;-78
2023/03/09 02:37:38;;;;;;;12.30;9.43;;;0.40;1.00;;;;;;4975907;28;20192;-78
2023/03/09 02:40:16;;;;;;;12.53;9.47;;;0.40;1.00;;;;;;4966824;28;20244;-78
2023/03/09 02:42:45;;;;;;;11.47;9.23;;;0.30;1.00;;;;;;4962097;28;20192;-78
2023/03/09 02:45:12;;;;;;;11.17;8.50;;;0.40;1.00;;;;;;4977532;28;20295;-78
2023/03/09 02:47:38;;;;;;;10.33;8.50;;;0.40;1.00;;;;;;4968843;28;20228;-78
2023/03/09 02:50:06;;;;;;;10.23;8.33;;;0.40;99.90;;;;;;4960850;28;20276;-78
2023/03/09 02:52:32;;;;;;;10.83;8.47;;;0.40;99.90;;;;;;4963012;28;20375;-79
2023/03/09 02:54:57;;;;;;;9.80;8.00;;;0.40;99.90;;;;;;4961988;28;20216;-79
2023/03/09 02:57:23;;;;;;;11.40;8.70;;;0.30;99.90;;;;;;4961067;28;20280;-78
2023/03/09 02:59:48;;;;;;;10.80;8.77;;;0.30;99.90;;;;;;4962227;28;20295;-78
2023/03/09 03:02:14;;;;;;;11.03;8.33;;;0.30;99.90;;;;;;4961650;28;20213;-78
2023/03/09 03:04:39;;;;;;;10.70;9.13;;;0.40;1.00;;;;;;4962234;28;20204;-79
2023/03/09 03:07:05;;;;;;;11.23;8.70;;;0.40;1.00;;;;;;4966774;28;20188;-78
2023/03/09 03:09:30;;;;;;;11.23;8.87;;;0.40;1.00;;;;;;4962134;28;20200;-79
2023/03/09 03:11:57;;;;;;;10.83;8.67;;;0.30;1.00;;;;;;4972775;28;20189;-79
2023/03/09 03:14:22;;;;;;;10.63;8.23;;;0.30;1.00;;;;;;4959283;28;20300;-78
2023/03/09 03:16:48;;;;;;;9.73;7.53;;;0.30;14.20;;;;;;4958789;28;20291;-78
2023/03/09 03:19:13;;;;;;;9.27;7.43;;;0.30;99.90;;;;;;4959590;28;20272;-78
2023/03/09 03:21:39;;;;;;;8.43;6.90;;;0.30;99.90;;;;;;4965841;28;20177;-78
2023/03/09 03:24:05;;;;;;;8.37;6.57;;;0.30;1.00;;;;;;4956930;28;20182;-78
2023/03/09 03:26:31;;;;;;;7.93;6.67;;;0.30;1.00;;;;;;4955812;28;20186;-79
2023/03/09 03:28:56;;;;;;;7.97;6.57;;;0.30;1.00;;;;;;4959439;28;20276;-78
2023/03/09 03:31:22;;;;;;;8.30;7.13;;;0.30;1.00;;;;;;4961320;28;20268;-78
2023/03/09 03:33:47;;;;;;;7.83;6.47;;;0.30;22.10;;;;;;4962435;28;20186;-78
2023/03/09 03:36:13;;;;;;;9.67;7.53;;;0.30;99.90;;;;;;4961661;28;20228;-78
2023/03/09 03:38:40;;;;;;;8.70;7.13;;;0.30;1.00;;;;;;4968423;28;20182;-79
2023/03/09 03:41:06;;;;;;;7.57;6.30;;;0.30;1.00;;;;;;4961644;28;20181;-78
2023/03/09 03:43:31;;;;;;;8.87;7.00;;;0.30;99.90;;;;;;4959461;28;20259;-79
2023/03/09 03:45:57;;;;;;;8.53;7.03;;;0.30;99.90;;;;;;4960782;28;20294;-79
2023/03/09 03:48:22;;;;;;;9.80;7.87;;;0.20;99.90;;;;;;4961545;28;20183;-78
2023/03/09 03:50:48;;;;;;;9.90;8.03;;;0.20;99.90;;;;;;4962621;28;20185;-78
2023/03/09 03:53:13;;;;;;;9.87;8.23;;;0.30;1.00;;;;;;4961167;28;20613;-78
2023/03/09 03:55:39;;;;;;;8.87;7.30;;;0.20;1.00;;;;;;4960794;28;20216;-79
2023/03/09 03:58:04;;;;;;;9.60;7.03;;;0.20;99.90;;;;;;4967661;28;20264;-78
2023/03/09 04:00:30;;;;;;;9.57;7.27;;;0.20;1.00;;;;;;4975710;28;20196;-79
2023/03/09 04:02:56;;;;;;;9.33;7.57;;;0.30;21.30;;;;;;4961254;28;20193;-79
2023/03/09 04:05:22;;;;;;;9.40;7.67;;;0.20;99.90;;;;;;4969209;28;20213;-79
2023/03/09 04:07:48;;;;;;;9.30;7.30;;;0.20;1.00;;;;;;4976418;28;20189;-78
2023/03/09 04:10:14;;;;;;;9.63;8.00;;;0.20;1.00;;;;;;4962323;28;20259;-78
2023/03/09 04:12:39;;;;;;;9.57;7.83;;;0.20;8.60;;;;;;4968175;28;21189;-79
2023/03/09 04:15:05;;;;;;;9.80;7.67;;;0.20;99.90;;;;;;4959381;28;20295;-79
2023/03/09 04:17:31;;;;;;;10.07;7.80;;;0.20;99.90;;;;;;4962121;28;20189;-79
2023/03/09 04:19:57;;;;;;;11.20;8.27;;;0.20;1.00;;;;;;4967393;28;20229;-80
2023/03/09 04:22:22;;;;;;;10.47;7.93;;;0.20;16.40;;;;;;4961534;28;20192;-79
2023/03/09 04:24:49;;;;;;;10.73;8.23;;;0.20;99.90;;;;;;4975207;28;20202;-79
2023/03/09 04:27:14;;;;;;;10.53;8.27;;;0.10;99.90;;;;;;4962832;28;20186;-79
2023/03/09 04:29:40;;;;;;;11.60;9.13;;;0.20;99.90;;;;;;4970344;28;20243;-78
2023/03/09 04:32:06;;;;;;;10.63;8.37;;;0.20;1.00;;;;;;4962638;28;20197;-79
2023/03/09 04:34:32;;;;;;;12.47;9.70;;;0.20;1.00;;;;;;4962022;28;20890;-79
2023/03/09 04:36:57;;;;;;;11.50;8.77;;;0.20;1.00;;;;;;4961428;28;20213;-79
2023/03/09 04:39:23;;;;;;;11.97;9.17;;;0.20;1.00;;;;;;4964249;28;20201;-79
2023/03/09 04:41:49;;;;;;;10.80;8.70;;;0.20;99.90;;;;;;4963376;28;20200;-79
2023/03/09 04:44:14;;;;;;;10.37;8.10;;;0.20;99.90;;;;;;4961685;28;20209;-79
2023/03/09 04:46:40;;;;;;;11.10;8.63;;;0.20;99.90;;;;;;4978499;28;20193;-80
2023/03/09 04:49:06;;;;;;;10.97;8.73;;;0.20;99.90;;;;;;4963086;28;20256;-80
2023/03/09 04:51:31;;;;;;;14.03;9.43;;;0.20;99.90;;;;;;4970658;28;20661;-80
2023/03/09 04:53:57;;;;;;;12.10;9.00;;;0.20;99.90;;;;;;4967067;28;20566;-80
2023/03/09 04:56:22;;;;;;;12.67;9.97;;;0.10;99.90;;;;;;4965150;28;20289;-79
2023/03/09 04:58:48;;;;;;;12.30;9.10;;;0.10;1.00;;;;;;4960899;28;20201;-79
2023/03/09 05:01:14;;;;;;;13.20;10.27;;;0.10;1.00;;;;;;4962816;28;20244;-79
2023/03/09 05:03:39;;;;;;;12.43;9.80;;;0.10;1.00;;;;;;4965735;28;20189;-79
2023/03/09 05:06:05;;;;;;;12.47;9.43;;;0.10;1.00;;;;;;4970518;28;20231;-80
2023/03/09 05:08:31;;;;;;;11.80;9.27;;;0.10;1.00;;;;;;4961798;28;20200;-79
2023/03/09 05:10:56;;;;;;;13.63;12.23;;;0.10;1.00;;;;;;4961896;28;20538;-79
2023/03/09 05:13:22;;;;;;;11.87;10.10;;;0.10;1.00;;;;;;4963009;28;20203;-79
2023/03/09 05:15:47;;;;;;;13.00;9.67;;;0.10;1.00;;;;;;4975279;28;20221;-79
2023/03/09 05:18:13;;;;;;;12.47;9.60;;;0.20;1.00;;;;;;4964485;28;20185;-79
2023/03/09 05:20:39;;;;;;;10.23;8.93;;;0.20;1.00;;;;;;4969727;28;20685;-79
2023/03/09 05:23:05;;;;;;;10.23;8.47;;;0.20;1.00;;;;;;4961532;28;20181;-79
2023/03/09 05:25:31;;;;;;;12.40;9.67;;;0.20;1.00;;;;;;4967031;28;20247;-79
2023/03/09 05:27:57;;;;;;;10.93;9.00;;;0.20;1.00;;;;;;4961596;28;20194;-80
2023/03/09 05:30:22;;;;;;;12.07;9.47;;;0.20;1.00;;;;;;4969834;28;20195;-80
2023/03/09 05:32:49;;;;;;;10.50;8.33;;;0.20;99.90;;;;;;4967486;28;20197;-80
2023/03/09 05:35:18;;;;;;;11.63;8.70;;;0.20;99.90;;;;;;4966026;28;20219;-79
2023/03/09 05:37:45;;;;;;;11.53;8.93;;;0.20;99.90;;;;;;4964466;28;20197;-79
2023/03/09 05:40:12;;;;;;;11.33;8.60;;;0.20;99.90;;;;;;4969759;28;20280;-79
2023/03/09 05:42:38;;;;;;;12.00;9.30;;;0.20;1.00;;;;;;4970136;28;20185;-79
2023/03/09 05:45:04;;;;;;;12.10;8.70;;;0.20;30.70;;;;;;4970518;28;20205;-80
2023/03/09 05:47:31;;;;;;;9.80;8.23;;;0.20;99.90;;;;;;4961730;28;20669;-80
2023/03/09 05:49:56;;;;;;;11.83;9.10;;;0.20;99.90;;;;;;4963442;28;20189;-80
2023/03/09 05:52:22;;;;;;;12.87;9.63;;;0.20;99.90;;;;;;4967978;28;20190;-79
2023/03/09 05:54:48;;;;;;;11.57;9.47;;;0.20;99.90;;;;;;5010992;23;20744;-80
2023/03/09 05:57:14;;;;;;;11.43;8.70;;;0.20;99.90;;;;;;5054356;22;20222;-79
2023/03/09 05:59:40;;;;;;;10.93;8.27;;;0.20;99.90;;;;;;5029316;28;20179;-80
2023/03/09 06:02:06;;;;;;;10.67;8.47;;;0.30;79.40;;;;;;5028446;28;20189;-81
2023/03/09 06:04:32;;;;;;;10.00;8.20;;;0.30;99.90;;;;;;5021564;28;20211;-81
2023/03/09 06:06:57;;;;;;;11.07;8.30;;;0.30;99.90;;;;;;5009622;28;20246;-80
2023/03/09 06:09:23;;;;;;;12.20;9.10;;;0.40;99.90;;;;;;5011109;28;20553;-81
2023/03/09 06:11:48;;;;;;;10.70;8.63;;;0.30;99.90;;;;;;5009673;28;20192;-81
2023/03/09 06:14:14;;;;;;;11.23;8.80;;;0.30;1.00;;;;;;5010530;28;20546;-79
2023/03/09 06:16:39;;;;;;;11.87;8.60;;;0.30;1.00;;;;;;5010824;28;20192;-82
2023/03/09 06:19:05;;;;;;;11.07;8.77;;;0.40;1.00;;;;;;5007309;28;20194;-82
2023/03/09 06:21:31;;;;;;;11.00;8.47;;;0.40;99.90;;;;;;5006214;28;20186;-81
2023/03/09 06:23:57;;;;;;;11.63;8.77;;;0.50;99.90;;;;;;5005881;28;20559;-80
2023/03/09 06:26:24;;;;;;;11.73;9.43;;;0.50;99.90;;;;;;5006220;28;20191;-80
2023/03/09 06:28:50;;;;;;;12.27;9.07;;;0.50;99.90;;;;;;5008177;28;20195;-81
2023/03/09 06:31:16;;;;;;;11.73;9.23;;;0.50;99.90;;;;;;5008236;28;20234;-80
2023/03/09 06:33:44;;;;;;;12.27;8.93;;;0.50;99.90;;;;;;5008080;28;20238;-80
2023/03/09 06:36:11;;;;;;;11.87;9.03;;;0.50;99.90;;;;;;5009386;28;20215;-81
2023/03/09 06:38:36;;;;;;;13.97;10.67;;;0.60;99.90;;;;;;5007561;28;20188;-80
2023/03/09 06:41:02;;;;;;;13.83;10.70;;;0.60;99.90;;;;;;5008136;28;20245;-81
2023/03/09 06:43:27;;;;;;;14.63;11.03;;;0.60;92.30;;;;;;5008873;28;20251;-79
2023/03/09 06:45:53;;;;;;;14.87;11.77;;;0.70;70.50;;;;;;5006309;28;20261;-80
2023/03/09 06:48:18;;;;;;;15.13;11.80;;;0.70;1.00;;;;;;5007027;28;20592;-80
2023/03/09 06:50:44;;;;;;;13.97;10.97;;;0.80;1.00;;;;;;5006206;28;20211;-79
2023/03/09 06:53:11;;;;;;;13.80;10.33;;;0.80;1.00;;;;;;5004924;28;20623;-80
2023/03/09 06:55:38;;;;;;;13.70;10.27;;;0.90;28.40;;;;;;5013204;28;20235;-80
2023/03/09 06:58:04;;;;;;;15.73;12.07;;;0.80;99.90;;;;;;5009940;28;20266;-81
2023/03/09 07:00:30;;;;;;;14.37;11.93;;;0.80;99.90;;;;;;5012258;28;20214;-81
2023/03/09 07:02:57;;;;;;;16.23;12.00;;;0.80;1.00;;;;;;5013954;28;20183;-82
2023/03/09 07:05:23;;;;;;;14.27;11.00;;;0.80;1.00;;;;;;5011618;28;20207;-79
2023/03/09 07:07:48;;;;;;;14.07;11.30;;;0.90;1.00;;;;;;5017865;28;20202;-82
2023/03/09 07:10:14;;;;;;;14.30;11.37;;;1.00;31.60;;;;;;5035952;28;20217;-80
2023/03/09 07:12:40;;;;;;;14.33;10.57;;;1.00;5.60;;;;;;5021207;28;20203;-81
2023/03/09 07:15:07;;;;;;;13.30;10.37;;;1.20;1.00;;;;;;5021774;28;20246;-81
2023/03/09 07:17:33;;;;;;;12.20;10.70;;;1.20;99.90;;;;;;5022771;28;20184;-80
2023/03/09 07:19:58;;;;;;;12.63;10.53;;;1.30;99.90;;;;;;5022455;28;20278;-81
2023/03/09 07:22:25;;;;;;;12.50;10.07;;;1.30;1.00;;;;;;5020078;28;20218;-81
2023/03/09 07:24:50;;;;;;;11.53;9.30;;;2.20;99.90;;;;;;5020616;28;20239;-81
2023/03/09 07:27:18;;;;;;;12.17;10.00;;;1.50;1.00;;;;;;5042809;23;20633;-79
2023/03/09 07:29:45;;;;;;;12.27;10.47;;;1.50;99.90;;;;;;5025661;28;20178;-77
2023/03/09 07:32:11;;;;;;;12.07;9.73;;;1.50;1.00;;;;;;5027199;28;20183;-77
2023/03/09 07:34:37;;;;;;;12.40;10.77;;;1.60;99.90;;;;;;5029696;28;20276;-78
2023/03/09 07:37:03;;;;;;;10.97;9.50;;;1.70;99.90;;;;;;5022795;28;20187;-78
2023/03/09 07:39:28;;;;;;;11.70;10.13;;;1.80;99.90;;;;;;5029380;28;20183;-78
2023/03/09 07:41:54;;;;;;;10.77;9.67;;;1.90;1.00;;;;;;5031025;28;20189;-78
2023/03/09 07:44:20;;;;;;;11.87;10.10;;;1.90;1.00;;;;;;5022441;28;20694;-78
2023/03/09 07:46:45;;;;;;;10.50;8.87;;;1.90;1.00;;;;;;5045393;28;20695;-78
2023/03/09 07:49:11;;;;;;;11.20;9.43;;;1.90;99.90;;;;;;5021228;28;20183;-78
2023/03/09 07:51:37;;;;;;;15.67;9.83;;;1.80;22.40;;;;;;5029885;28;20244;-78
2023/03/09 07:54:05;;;;;;;10.80;9.07;;;1.70;30.50;;;;;;5020889;28;20197;-78
2023/03/09 07:56:30;;;;;;;12.70;10.33;;;1.90;56.40;;;;;;5030569;28;20243;-78
2023/03/09 07:58:56;;;;;;;14.27;12.67;;;2.00;78.30;;;;;;5030266;28;20191;-78
2023/03/09 08:01:23;;;;;;;12.77;11.03;;;2.10;1.00;;;;;;5026680;28;20194;-77
2023/03/09 08:03:48;;;;;;;11.43;10.23;;;2.20;1.00;;;;;;5032000;28;20183;-77
2023/03/09 08:06:14;;;;;;;11.60;10.23;;;2.30;99.90;;;;;;5031908;28;20222;-77
2023/03/09 08:08:40;;;;;;;9.90;8.90;;;2.40;99.90;;;;;;5031483;28;20199;-77
2023/03/09 08:11:06;;;;;;;10.13;8.83;;;2.40;99.90;;;;;;5031161;28;20194;-78
2023/03/09 08:13:33;;;;;;;9.40;8.10;;;2.50;99.90;;;;;;5027867;28;20195;-79
2023/03/09 08:16:01;;;;;;;9.70;8.70;;;2.40;99.90;;;;;;5030901;28;20250;-77
2023/03/09 08:18:27;;;;;;;11.00;9.73;;;2.40;99.90;;;;;;5031318;28;20190;-77
2023/03/09 08:20:52;;;;;;;11.37;10.20;;;2.30;99.90;;;;;;5031519;28;20187;-79
2023/03/09 08:23:18;;;;;;;16.43;14.80;;;2.40;99.90;;;;;;5031622;28;21115;-79
2023/03/09 08:25:44;;;;;;;14.57;12.13;;;2.60;99.90;;;;;;5029182;28;20218;-78
2023/03/09 08:28:11;;;;;;;17.73;15.50;;;2.80;99.90;;;;;;5030579;28;20276;-77
2023/03/09 08:30:38;;;;;;;11.90;10.73;;;2.90;99.90;;;;;;5020575;28;20187;-79
2023/03/09 08:33:04;;;;;;;9.87;8.90;;;3.00;99.90;;;;;;5031127;28;20237;-78
2023/03/09 08:35:32;;;;;;;11.63;10.43;;;3.10;99.90;;;;;;5030405;28;20218;-80
2023/03/09 08:37:59;;;;;;;16.73;14.93;;;3.10;99.90;;;;;;5029956;28;20187;-79
2023/03/09 08:40:25;;;;;;;13.43;12.03;;;3.20;99.90;;;;;;5030400;28;20189;-80
2023/03/09 08:42:51;;;;;;;109.77;76.07;;;3.10;99.90;;;;;;5030774;28;20216;-76
2023/03/09 08:45:17;;;;;;;40.23;33.93;;;3.20;99.90;;;;;;5022157;28;20623;-77
2023/03/09 08:47:43;;;;;;;22.77;19.23;;;3.20;99.90;;;;;;5030234;28;20187;-79
2023/03/09 08:50:10;;;;;;;14.50;12.43;;;3.20;99.90;;;;;;5023653;28;20252;-77
2023/03/09 08:52:37;;;;;;;12.40;11.10;;;2.90;99.90;;;;;;5022829;28;20274;-78
2023/03/09 08:55:05;;;;;;;13.70;11.73;;;3.00;99.90;;;;;;5029772;28;20366;-78
2023/03/09 08:57:31;;;;;;;22.60;15.87;;;2.90;99.90;;;;;;5029560;28;20220;-78
2023/03/09 08:59:57;;;;;;;13.97;11.70;;;2.90;99.90;;;;;;5029390;28;20190;-78
2023/03/09 09:02:23;;;;;;;13.07;11.67;;;2.90;99.90;;;;;;5029424;28;20560;-78
2023/03/09 09:04:49;;;;;;;12.97;11.13;;;2.70;99.90;;;;;;5029320;28;20648;-79
2023/03/09 09:07:15;;;;;;;12.63;11.13;;;2.70;99.90;;;;;;5045057;28;20185;-78
2023/03/09 09:09:42;;;;;;;12.30;11.00;;;2.70;99.90;;;;;;5032160;28;20205;-78
2023/03/09 09:12:09;;;;;;;12.07;10.83;;;2.70;99.90;;;;;;5022411;28;20182;-78
2023/03/09 09:14:37;;;;;;;13.50;11.27;;;2.70;99.90;;;;;;5032238;28;20681;-79
2023/03/09 09:17:04;;;;;;;12.97;11.63;;;2.80;99.90;;;;;;5032247;28;20206;-79
2023/03/09 09:19:29;;;;;;;12.03;10.80;;;2.90;99.90;;;;;;5030409;28;20298;-78
2023/03/09 09:21:56;;;;;;;12.00;10.80;;;2.90;99.90;;;;;;5031247;28;20621;-79
2023/03/09 09:24:22;;;;;;;13.63;12.30;;;3.00;99.90;;;;;;5033476;28;20199;-79
2023/03/09 09:26:47;;;;;;;11.50;10.30;;;3.10;99.90;;;;;;5031490;28;20226;-79
2023/03/09 09:29:13;;;;;;;12.47;11.00;;;3.20;99.90;;;;;;5020864;28;20210;-78
2023/03/09 09:31:39;;;;;;;12.03;10.80;;;3.00;99.90;;;;;;5029911;28;20187;-78
2023/03/09 09:34:05;;;;;;;12.27;10.87;;;2.90;99.90;;;;;;5029091;28;20261;-77
2023/03/09 09:36:33;;;;;;;12.53;11.23;;;2.80;99.90;;;;;;5030034;28;20305;-78
2023/03/09 09:38:58;;;;;;;12.50;10.87;;;2.70;99.90;;;;;;5027912;28;20233;-82
2023/03/09 09:41:27;;;;;;;12.67;11.03;;;2.70;99.90;;;;;;5030128;28;20187;-79
2023/03/09 09:43:58;;;;;;;12.53;11.17;;;2.50;99.90;;;;;;5027030;28;20194;-77
2023/03/09 09:46:24;;;;;;;15.23;11.50;;;2.60;99.90;;;;;;5044509;28;20198;-77
2023/03/09 09:48:50;;;;;;;14.07;11.97;;;2.70;99.90;;;;;;5028142;28;20191;-78
2023/03/09 09:51:42;;;;;;;12.50;11.20;;;2.80;99.90;;;;;;5026528;28;20194;-78
2023/03/09 09:54:19;;;;;;;13.43;11.70;;;2.90;99.90;;;;;;5019267;28;20199;-78
2023/03/09 09:56:49;;;;;;;15.17;13.40;;;3.00;99.90;;;;;;5023863;28;20187;-79
2023/03/09 09:59:32;;;;;;;12.47;11.17;;;3.00;99.90;;;;;;5027394;28;20190;-79
2023/03/09 10:02:07;;;;;;;13.17;11.60;;;3.00;99.90;;;;;;5027679;28;20464;-78
2023/03/09 10:04:46;;;;;;;13.00;10.90;;;3.10;99.90;;;;;;5025866;28;20206;-77
2023/03/09 10:07:21;;;;;;;12.63;11.33;;;3.00;99.90;;;;;;5028091;28;20214;-78
2023/03/09 10:09:51;;;;;;;13.47;11.13;;;3.00;99.90;;;;;;5025950;28;20590;-80
2023/03/09 10:12:16;;;;;;;12.30;11.00;;;3.00;99.90;;;;;;5027697;28;21076;-78
2023/03/09 10:14:45;;;;;;;12.50;11.20;;;3.10;99.90;;;;;;5025834;28;20234;-78
2023/03/09 10:17:24;;;;;;;12.70;11.03;;;3.20;99.90;;;;;;5027352;28;20178;-78
2023/03/09 10:19:51;;;;;;;14.30;11.83;;;3.30;99.90;;;;;;5026601;28;20191;-79
2023/03/09 10:22:25;;;;;;;13.30;11.40;;;3.40;99.90;;;;;;5042078;28;20229;-79
2023/03/09 10:24:53;;;;;;;13.33;11.93;;;3.40;99.90;;;;;;5024204;28;20207;-79
2023/03/09 10:27:23;;;;;;;12.80;10.80;;;3.40;99.90;;;;;;5026869;28;20206;-78
2023/03/09 10:30:25;;;;;;;12.50;11.20;;;3.50;99.90;;;;;;5016599;28;20186;-80
2023/03/09 10:32:54;;;;;;;12.20;10.90;;;3.70;99.90;;;;;;5041603;28;20204;-78
2023/03/09 10:35:53;;;;;;;13.13;11.40;;;3.70;99.90;;;;;;5017331;28;20220;-77
2023/03/09 10:38:23;;;;;;;13.87;12.10;;;3.80;99.90;;;;;;5026456;28;20190;-78
2023/03/09 10:40:51;;;;;;;13.77;11.90;;;4.00;99.90;;;;;;5031639;28;20182;-78
2023/03/09 10:43:26;;;;;;;13.43;11.93;;;3.70;99.90;;;;;;5047686;28;20190;-78
2023/03/09 10:45:53;;;;;;;14.00;12.13;;;3.70;93.10;;;;;;5031964;28;20217;-79
2023/03/09 10:48:21;;;;;;;13.87;11.67;;;3.70;96.40;;;;;;5033026;28;20696;-77
2023/03/09 10:51:05;;;;;;;13.40;11.60;;;3.80;99.90;;;;;;5029799;28;20187;-79
2023/03/09 10:53:41;;;;;;;14.17;12.17;;;4.10;99.90;;;;;;5032205;28;20566;-78
2023/03/09 10:56:21;;;;;;;14.60;12.80;;;4.40;99.90;;;;;;5029856;28;20256;-80
2023/03/09 10:59:08;;;;;;;68.17;47.53;;;4.50;78.20;;;;;;5019865;28;21011;-79
2023/03/09 11:01:45;;;;;;;18.17;16.17;;;4.50;66.10;;;;;;5029622;28;20659;-78
2023/03/09 11:04:34;;;;;;;51.00;39.70;;;4.70;83.00;;;;;;5031376;28;20207;-79
2023/03/09 11:07:25;;;;;;;28.73;25.07;;;4.80;63.00;;;;;;5031892;28;20266;-78
2023/03/09 11:09:52;;;;;;;17.00;15.23;;;4.50;40.00;;;;;;5022449;28;20234;-79
2023/03/09 11:12:21;;;;;;;25.43;22.70;;;4.40;48.10;;;;;;5031641;28;20182;-78
2023/03/09 11:14:53;;;;;;;20.67;18.03;;;4.30;37.40;;;;;;5037970;28;20682;-78
2023/03/09 11:17:40;;;;;;;27.83;22.97;;;4.10;48.70;;;;;;5032119;28;20635;-78
2023/03/09 11:20:12;;;;;;;18.07;14.93;;;3.90;73.00;;;;;;5031709;28;20541;-78
2023/03/09 11:22:40;;;;;;;21.50;18.13;;;3.90;91.40;;;;;;5032765;28;20605;-78
2023/03/09 11:25:14;;;;;;;24.70;21.87;;;3.80;96.50;;;;;;5029893;28;20213;-79
2023/03/09 11:27:49;;;;;;;22.67;18.87;;;3.80;94.00;;;;;;5044496;28;20576;-78
2023/03/09 11:30:16;;;;;;;54.07;40.37;;;3.80;88.30;;;;;;5029482;28;20194;-78
2023/03/09 11:32:42;;;;;;;39.37;30.63;;;3.70;81.90;;;;;;5043653;28;20195;-78
2023/03/09 11:35:15;;;;;;;76.73;61.57;;;3.80;96.50;;;;;;5020180;28;20235;-78
2023/03/09 11:38:02;;;;;;;45.20;38.10;;;3.60;86.70;;;;;;5020473;28;20179;-78
2023/03/09 11:40:29;;;;;;;42.83;35.00;;;3.60;99.50;;;;;;5029727;28;20183;-77
2023/03/09 11:43:18;;;;;;;27.23;22.77;;;3.70;99.90;;;;;;5029518;28;20404;-78
2023/03/09 11:45:44;;;;;;;36.10;28.80;;;3.80;99.90;;;;;;5028773;28;20207;-78
2023/03/09 11:48:40;;;;;;;114.30;85.80;;;3.60;99.90;;;;;;5030148;28;20460;-78
2023/03/09 11:51:24;;;;;;;40.40;30.97;;;3.60;97.70;;;;;;5020610;28;20219;-78
2023/03/09 11:54:28;;;;;;;22.87;19.57;;;3.30;97.60;;;;;;5033510;28;20193;-77
2023/03/09 11:56:54;;;;;;;22.47;18.87;;;3.40;99.90;;;;;;5033654;28;20191;-77
2023/03/09 11:59:30;;;;;;;18.83;15.93;;;3.50;99.90;;;;;;5032179;28;20191;-77
2023/03/09 12:02:10;;;;;;;20.10;16.60;;;3.50;99.90;;;;;;5033704;28;20187;-78
2023/03/09 12:04:36;;;;;;;21.77;17.67;;;3.70;99.90;;;;;;5046756;28;20199;-77
2023/03/09 12:07:25;;;;;;;20.33;17.20;;;3.60;99.90;;;;;;5030219;28;20182;-78
2023/03/09 12:10:25;;;;;;;35.80;29.03;;;3.60;99.90;;;;;;5029603;28;20203;-77
2023/03/09 12:12:58;;;;;;;23.53;19.60;;;3.60;99.90;;;;;;5029746;28;20680;-77
2023/03/09 12:15:45;;;;;;;20.43;16.00;;;3.60;99.90;;;;;;5019683;28;20210;-78
2023/03/09 12:18:24;;;;;;;81.13;65.77;;;3.60;99.90;;;;;;5044764;28;20556;-77
2023/03/09 12:20:59;;;;;;;22.37;17.83;;;3.40;99.90;;;;;;5028341;28;20733;-77
2023/03/09 12:23:37;;;;;;;19.17;16.40;;;3.40;99.90;;;;;;5045821;28;20225;-77
2023/03/09 12:26:12;;;;;;;22.13;18.97;;;3.40;99.90;;;;;;5022067;28;20225;-76
2023/03/09 12:28:38;;;;;;;21.10;17.27;;;3.60;99.90;;;;;;5020111;28;20187;-78
2023/03/09 12:31:05;;;;;;;20.90;17.03;;;3.60;99.90;;;;;;5028849;28;21287;-77
2023/03/09 12:33:43;;;;;;;18.93;15.40;;;3.70;99.90;;;;;;5021898;28;20183;-78
2023/03/09 12:36:23;;;;;;;22.20;19.27;;;3.70;99.90;;;;;;5021410;28;20301;-77
2023/03/09 12:39:33;;;;;;;17.50;14.90;;;3.60;99.90;;;;;;5027497;28;20182;-76
2023/03/09 12:42:03;;;;;;;18.10;15.10;;;3.70;99.90;;;;;;5019924;28;20210;-77
2023/03/09 12:44:44;;;;;;;17.60;14.17;;;4.70;99.90;;;;;;5018588;28;20210;-78
2023/03/09 12:47:23;;;;;;;19.33;15.37;;;3.40;99.90;;;;;;5029321;28;20370;-78
2023/03/09 12:49:54;;;;;;;22.83;19.27;;;3.50;99.90;;;;;;5027120;28;20179;-77
2023/03/09 12:52:44;;;;;;;19.83;16.73;;;3.50;99.90;;;;;;5027957;28;20584;-77
2023/03/09 12:55:40;;;;;;;27.00;22.60;;;3.50;99.90;;;;;;5027189;28;20211;-77